Aiken, Texas
Current Conditions -  °F | °C
As of 12:15 PM on Saturday 25 Oct 2014 (Local Time) from KPVW Reporting Station
Clear Clear  
Wind Chill: 78°   Ceiling: Unl
Heat Index: 79°   Visibility: 10mi
Dew Point: 54°   Wind: 9mph
Humidity: 44%   Direction: 200°SSW
Pressure: 30.19"   Gusts: NA
Location:  34.14°N, 101.53°W
Report Text: KPVW 251715Z AUTO 20008KT 10SM CLR 25/12 A3019 RMK AO2 T02530122
Loading
Personal Weather Stations






























Interactive Weather Map
Tropical Storm Tracking
New forecast layout! Learn more

10-Day Weather Forecast

Advertisements
Track Severe Weather on mobile